Gütersloh, Deutschland

09:51 PM CEST am 21. Oktober 2014 (GMT +0200)
INRWVERL2 | Change Station
CLOSE
Current Station
Persönliche Wetterstationen
Location: Verl, NRW
Höhe: 282 ft
Wetterstationen in der Umgebung

Höhe 282 ft 51.89 °N, 8.46 °E | Updated 5 seconds ago

Light Rain
Leichter Regen
47.8 °F
gefühlte 45 °F
N
6.0
Wind Wechselnd Wind aus Nordwest
Gusts 7.4 mph

Heute
Max. -- | schwach -- °F
--% Regenrisiko
Gestern
Max. -- | schwach -- °F
Precip. -- inch
8:01 AM 6:20 PM
Letztes Viertel, 4% visible
Druck 29.59 inch
Sichtweite 6.2 Meilen
Wolken Teils Wolkig 1000 ft
Wolkig 1900 ft
Windchill 45 °F
Taupunkt 45 °F
Feuchtigkeit 89%
Regen 0.35 inch
Schneehöhe Nicht verfügbar..
UV 0.0 von 12
Pollen Nicht verfügbar..
Luftqualität Nicht verfügbar..
Flu Activity Nicht verfügbar..
METAR EDLP 211920Z 27010KT 210V310 9999 -RA SCT010 BKN019 08/07 Q1002 RMK ATIS NOV

More Conditions Fewer Conditions

Druck 29.59 inch
Sichtweite 6.2 Meilen
Wolken Teils Wolkig 1000 ft
Wolkig 1900 ft
Windchill 45 °F
Taupunkt 45 °F
Feuchtigkeit 89%
Regen 0.35 inch
Schneehöhe Nicht verfügbar..
UV 0.0 von 12
Pollen Nicht verfügbar..
Luftqualität Nicht verfügbar..
Flu Activity Nicht verfügbar..
METAR EDLP 211920Z 27010KT 210V310 9999 -RA SCT010 BKN019 08/07 Q1002 RMK ATIS NOV

More Conditions Fewer Conditions

10-Day Weather Forecast

Almanac

Astronomie

Oct. 21, 2014 Aufgang Untergang
Genaue Zeit 08:01 CEST 18:20 CEST
Bürgerliche Dämmerung 07:27 CEST 18:54 CEST
Nautische Dämmerung 06:47 CEST 19:34 CEST
Astronomische Dämmerung 06:08 CEST 20:12 CEST
Mond 05:12 CEST 17:20 CEST
Länge des sichtbaren Lichts 11h 27m
Tageslänge
10h 19m
Tomorrow will be 3m 50s shorter.
Letztes Viertel, 4% of the Moon is Illuminated
Heute
Letztes Viertel
Okt 23
Neu
Okt 30
Erstes Viertel
Nov 6
Vollmond
Nov 14
Letztes Viertel

Heutige Rekorde

Country Highs Country Lows

Community

WunderPhotos

Upload Photos

1,763,754 Fotos hochgeladen!

Nearby

Schneehöhe

Not available.

Erdbebenaktivität

Stadt Distance Mag. Time & Date
No recent earthquake activity has been reported nearby.
Minimum magnitude displayed is 2.5.

küstennahe Wassertemperaturen

Ort Temperatur
Kein Stationsbericht

Wetterstationen in der Umgebung